createdAt,value
2019-06-08T00:01:28.293Z,54.46
2019-06-08T00:03:58.389Z,55.12
2019-06-08T00:06:28.416Z,55.12
2019-06-08T00:08:58.324Z,55.15
2019-06-08T00:11:28.185Z,54.93
2019-06-08T00:13:58.061Z,54.91
2019-06-08T00:16:28.063Z,55.13
2019-06-08T00:18:58.183Z,54.93
2019-06-08T00:21:28.186Z,55.18
2019-06-08T00:23:59.386Z,55.59
2019-06-08T00:26:29.388Z,55.38
2019-06-08T00:28:59.390Z,55.61
2019-06-08T00:31:29.396Z,55.46
2019-06-08T00:33:59.412Z,56.13
2019-06-08T00:36:29.394Z,55.74
2019-06-08T00:38:59.396Z,55.94
2019-06-08T00:41:29.413Z,56.12
2019-06-08T00:43:59.408Z,56.30
2019-06-08T00:46:29.427Z,56.48
2019-06-08T00:48:59.423Z,56.02
2019-06-08T00:51:29.826Z,56.16
2019-06-08T00:53:59.774Z,55.95
2019-06-08T00:56:30.035Z,56.12
2019-06-08T00:59:00.258Z,56.17
2019-06-08T01:01:30.917Z,55.96
2019-06-08T01:04:00.976Z,55.81
2019-06-08T01:06:31.072Z,55.73
2019-06-08T01:09:00.975Z,55.95
2019-06-08T01:11:31.140Z,56.06
2019-06-08T01:14:01.101Z,56.43
2019-06-08T01:16:31.133Z,55.98
2019-06-08T01:19:01.109Z,55.69
2019-06-08T01:21:31.128Z,55.62
2019-06-08T01:24:00.987Z,55.91
2019-06-08T01:26:31.090Z,56.10
2019-06-08T01:29:01.117Z,56.24
2019-06-08T01:31:31.141Z,56.25
2019-06-08T01:34:01.022Z,55.97
2019-06-08T01:36:31.292Z,55.85
2019-06-08T01:39:01.358Z,55.71
2019-06-08T01:41:31.714Z,55.78
2019-06-08T01:44:01.730Z,55.71
2019-06-08T01:46:32.405Z,55.75
2019-06-08T01:49:02.323Z,55.47
2019-06-08T01:51:32.748Z,55.40
2019-06-08T01:54:02.838Z,55.47
2019-06-08T01:56:33.387Z,55.53
2019-06-08T01:59:03.661Z,55.11
2019-06-08T02:01:34.163Z,55.04
2019-06-08T02:04:04.623Z,55.01
2019-06-08T02:06:34.772Z,55.11
2019-06-08T02:09:07.619Z,54.94
2019-06-08T02:11:37.861Z,55.15
2019-06-08T02:14:07.860Z,54.93
2019-06-08T02:16:37.870Z,55.78
2019-06-08T02:19:07.878Z,55.17
2019-06-08T02:21:39.022Z,55.58
2019-06-08T02:24:08.961Z,55.15
2019-06-08T02:26:39.720Z,55.60
2019-06-08T02:29:09.790Z,55.42
2019-06-08T02:31:39.692Z,55.56
2019-06-08T02:34:09.696Z,55.19
2019-06-08T02:36:40.803Z,55.17
2019-06-08T02:39:11.147Z,55.02
2019-06-08T02:41:41.005Z,55.12
2019-06-08T02:44:11.147Z,55.11
2019-06-08T02:46:41.015Z,54.58
2019-06-08T02:49:10.907Z,54.83
2019-06-08T02:51:41.344Z,54.77
2019-06-08T02:54:13.185Z,54.88
2019-06-08T02:56:44.258Z,54.80
2019-06-08T02:59:16.029Z,54.82
2019-06-08T03:01:48.587Z,55.15
2019-06-08T03:04:19.998Z,54.95
2019-06-08T03:06:52.337Z,54.68
2019-06-08T03:09:23.834Z,54.59
2019-06-08T03:11:56.656Z,54.75
2019-06-08T03:14:31.059Z,54.64
2019-06-08T03:17:01.641Z,54.78
2019-06-08T03:19:33.344Z,55.31
2019-06-08T03:22:03.921Z,55.27
2019-06-08T03:24:34.871Z,55.13
2019-06-08T03:27:06.263Z,55.27
2019-06-08T03:29:37.626Z,54.94
2019-06-08T03:32:09.148Z,54.84
2019-06-08T03:34:46.023Z,55.02
2019-06-08T03:37:11.421Z,54.75
2019-06-08T03:39:43.093Z,54.87
2019-06-08T03:42:13.540Z,54.84
2019-06-08T03:44:45.118Z,55.14
2019-06-08T03:47:15.516Z,55.61
2019-06-08T03:49:54.923Z,55.22
2019-06-08T03:52:18.585Z,55.72
2019-06-08T03:54:49.188Z,55.48
2019-06-08T03:57:19.591Z,55.49
2019-06-08T03:59:50.149Z,55.15
2019-06-08T04:02:21.114Z,55.58
2019-06-08T04:04:52.086Z,55.41
2019-06-08T04:07:22.917Z,55.40
2019-06-08T04:09:53.397Z,55.23
2019-06-08T04:12:23.685Z,55.48
2019-06-08T04:14:54.239Z,55.21
2019-06-08T04:17:24.755Z,54.88
2019-06-08T04:20:09.746Z,55.59
2019-06-08T04:22:27.381Z,55.06
2019-06-08T04:24:57.850Z,55.17
2019-06-08T04:27:28.572Z,54.85
2019-06-08T04:29:58.982Z,54.86
2019-06-08T04:32:29.655Z,55.08
2019-06-08T04:35:00.392Z,55.67
2019-06-08T04:37:31.471Z,55.70
2019-06-08T04:40:01.944Z,55.80
2019-06-08T04:42:32.428Z,55.79
2019-06-08T04:45:03.311Z,55.76
2019-06-08T04:47:33.879Z,55.28
2019-06-08T04:50:21.720Z,55.08
2019-06-08T04:52:38.887Z,55.05
2019-06-08T04:55:10.470Z,54.93
2019-06-08T04:57:41.922Z,54.62
2019-06-08T05:00:13.715Z,54.78
2019-06-08T05:02:46.228Z,54.70
2019-06-08T05:05:17.073Z,54.79
2019-06-08T05:07:48.522Z,54.56
2019-06-08T05:10:20.243Z,55.25
2019-06-08T05:12:51.278Z,54.85
2019-06-08T05:15:22.306Z,54.43
2019-06-08T05:17:52.878Z,54.32
2019-06-08T05:20:37.559Z,54.32
2019-06-08T05:22:55.311Z,54.55
2019-06-08T05:25:25.982Z,54.53
2019-06-08T05:27:56.809Z,54.36
2019-06-08T05:30:28.233Z,54.38
2019-06-08T05:32:59.095Z,54.42
2019-06-08T05:35:29.814Z,54.36
2019-06-08T05:38:00.666Z,54.35
2019-06-08T05:40:32.241Z,60.23
2019-06-08T05:43:02.848Z,57.97
2019-06-08T05:45:33.354Z,53.10
2019-06-08T05:48:04.165Z,53.39
2019-06-08T05:50:34.886Z,51.05
2019-06-08T05:53:05.863Z,54.08
2019-06-08T05:55:36.425Z,54.20
2019-06-08T05:58:07.321Z,51.33
2019-06-08T06:00:37.900Z,52.54
2019-06-08T06:03:08.836Z,53.08
2019-06-08T06:05:52.156Z,52.57
2019-06-08T06:08:22.923Z,50.18
2019-06-08T06:10:53.523Z,50.59
2019-06-08T06:13:24.855Z,48.55
2019-06-08T06:15:55.467Z,48.50
2019-06-08T06:18:26.053Z,50.01
2019-06-08T06:21:09.897Z,51.08
2019-06-08T06:23:29.053Z,50.65
2019-06-08T06:25:59.661Z,50.72
2019-06-08T06:28:30.453Z,49.70
2019-06-08T06:31:01.458Z,51.03
2019-06-08T06:33:32.269Z,48.91
2019-06-08T06:36:02.974Z,49.65
2019-06-08T06:38:33.595Z,49.11
2019-06-08T06:41:04.325Z,49.66
2019-06-08T06:43:35.317Z,49.47
2019-06-08T06:46:05.995Z,50.47
2019-06-08T06:48:36.393Z,51.23
2019-06-08T06:51:07.228Z,50.96
2019-06-08T06:53:37.613Z,48.81
2019-06-08T06:56:08.031Z,48.95
2019-06-08T06:58:42.985Z,49.66
2019-06-08T07:01:13.911Z,49.37
2019-06-08T07:03:46.059Z,50.56
2019-06-08T07:06:16.677Z,49.81
2019-06-08T07:08:48.241Z,50.69
2019-06-08T07:11:19.330Z,49.70
2019-06-08T07:13:50.842Z,50.64
2019-06-08T07:16:21.490Z,49.98
2019-06-08T07:18:52.674Z,49.82
2019-06-08T07:21:23.091Z,50.35
2019-06-08T07:23:55.904Z,49.44
2019-06-08T07:26:26.174Z,50.66
2019-06-08T07:28:56.892Z,50.15
2019-06-08T07:31:27.497Z,50.48
2019-06-08T07:33:59.695Z,50.36
2019-06-08T07:36:30.871Z,50.68
2019-06-08T07:39:01.237Z,51.33
2019-06-08T07:41:31.954Z,51.01
2019-06-08T07:44:02.545Z,50.25
2019-06-08T07:46:32.821Z,49.73
2019-06-08T07:49:04.038Z,50.23
2019-06-08T07:51:34.706Z,49.89
2019-06-08T07:54:05.233Z,50.13
2019-06-08T07:56:35.847Z,50.01
2019-06-08T07:59:06.192Z,49.65
2019-06-08T08:01:36.790Z,49.61
2019-06-08T08:04:07.775Z,49.85
2019-06-08T08:06:38.504Z,49.03
2019-06-08T08:09:09.892Z,48.69
2019-06-08T08:11:40.421Z,48.89
2019-06-08T08:14:11.209Z,49.32
2019-06-08T08:16:41.856Z,48.83
2019-06-08T08:19:12.540Z,48.45
2019-06-08T08:21:43.138Z,48.65
2019-06-08T08:24:14.032Z,48.41
2019-06-08T08:26:44.576Z,48.92
2019-06-08T08:29:17.673Z,48.52
2019-06-08T08:31:49.114Z,47.79
2019-06-08T08:34:20.032Z,48.09
2019-06-08T08:36:51.093Z,47.76
2019-06-08T08:39:22.436Z,47.80
2019-06-08T08:41:56.844Z,48.12
2019-06-08T08:44:25.677Z,47.33
2019-06-08T08:46:57.001Z,48.26
2019-06-08T08:49:28.186Z,47.63
2019-06-08T08:52:00.575Z,47.83
2019-06-08T08:54:31.392Z,48.18
2019-06-08T08:57:05.033Z,47.19
2019-06-08T08:59:34.649Z,47.26
2019-06-08T09:02:10.927Z,46.74
2019-06-08T09:04:38.171Z,46.92
2019-06-08T09:07:10.617Z,46.72
2019-06-08T09:09:41.360Z,45.25
2019-06-08T09:12:11.843Z,44.52
2019-06-08T09:14:42.705Z,44.81
2019-06-08T09:17:13.456Z,44.67
2019-06-08T09:19:44.311Z,44.74
2019-06-08T09:22:14.734Z,44.95
2019-06-08T09:24:45.469Z,44.63
2019-06-08T09:27:17.877Z,43.93
2019-06-08T09:29:48.694Z,44.09
2019-06-08T09:32:19.474Z,43.94
2019-06-08T09:34:50.257Z,43.67
2019-06-08T09:37:20.799Z,44.44
2019-06-08T09:39:51.395Z,43.77
2019-06-08T09:42:22.544Z,43.97
2019-06-08T09:44:55.100Z,43.79
2019-06-08T09:47:25.190Z,42.49
2019-06-08T09:49:58.798Z,42.56
2019-06-08T09:52:28.243Z,42.31
2019-06-08T09:55:02.312Z,42.55
2019-06-08T09:57:31.322Z,42.05
2019-06-08T10:00:08.675Z,41.47
2019-06-08T10:02:34.804Z,40.66
2019-06-08T10:05:06.387Z,40.44
2019-06-08T10:07:38.879Z,39.77
2019-06-08T10:10:10.445Z,40.46
2019-06-08T10:12:41.378Z,40.22
2019-06-08T10:15:12.797Z,41.08
2019-06-08T10:17:43.267Z,41.66
2019-06-08T10:20:14.199Z,41.64
2019-06-08T10:22:44.656Z,40.99
2019-06-08T10:25:15.810Z,41.29
2019-06-08T10:27:46.496Z,39.80
2019-06-08T10:30:17.583Z,40.56
2019-06-08T10:32:50.762Z,39.68
2019-06-08T10:35:21.074Z,39.28
2019-06-08T10:37:55.077Z,39.71
2019-06-08T10:40:24.155Z,40.59
2019-06-08T10:42:54.770Z,39.72
2019-06-08T10:45:25.618Z,40.41
2019-06-08T10:47:59.341Z,40.27
2019-06-08T10:50:30.271Z,39.69
2019-06-08T10:53:03.650Z,40.55
2019-06-08T10:55:33.428Z,39.86
2019-06-08T10:58:04.522Z,40.96
2019-06-08T11:00:35.586Z,40.53
2019-06-08T11:03:09.730Z,42.40
2019-06-08T11:05:38.086Z,41.65
2019-06-08T11:08:12.969Z,40.55
2019-06-08T11:10:40.971Z,42.04
2019-06-08T11:13:14.954Z,40.47
2019-06-08T11:15:43.790Z,40.05
2019-06-08T11:18:14.046Z,39.36
2019-06-08T11:20:44.574Z,38.28
2019-06-08T11:23:15.339Z,38.11
2019-06-08T11:25:45.813Z,37.89
2019-06-08T11:28:18.554Z,38.78
2019-06-08T11:30:48.954Z,39.03
2019-06-08T11:33:19.555Z,38.62
2019-06-08T11:35:50.357Z,39.26
2019-06-08T11:38:20.951Z,39.06
2019-06-08T11:40:51.435Z,40.20
2019-06-08T11:43:22.035Z,39.85
2019-06-08T11:45:52.757Z,39.55
2019-06-08T11:48:23.272Z,38.85
2019-06-08T11:50:53.832Z,39.19
2019-06-08T11:53:24.472Z,38.61
2019-06-08T11:55:58.604Z,38.66
2019-06-08T11:58:30.756Z,38.63
2019-06-08T12:01:05.477Z,38.56
2019-06-08T12:03:38.763Z,38.70
2019-06-08T12:06:12.921Z,39.00
2019-06-08T12:08:41.480Z,38.90
2019-06-08T12:11:17.275Z,38.20
2019-06-08T12:13:44.494Z,38.04
2019-06-08T12:16:19.545Z,37.91
2019-06-08T12:18:49.168Z,36.91
2019-06-08T12:21:20.130Z,36.80
2019-06-08T12:23:50.735Z,36.98
2019-06-08T12:26:21.508Z,36.81
2019-06-08T12:28:51.942Z,36.67
2019-06-08T12:31:22.897Z,36.49
2019-06-08T12:33:53.552Z,35.79
2019-06-08T12:36:24.462Z,36.76
2019-06-08T12:38:55.544Z,36.03
2019-06-08T12:41:28.922Z,37.69
2019-06-08T12:43:58.956Z,38.01
2019-06-08T12:46:29.548Z,37.59
2019-06-08T12:49:00.466Z,37.88
2019-06-08T12:51:31.316Z,38.04
2019-06-08T12:54:01.848Z,38.69
2019-06-08T12:56:32.399Z,38.47
2019-06-08T12:59:03.121Z,38.53
2019-06-08T13:01:33.843Z,38.33
2019-06-08T13:04:04.680Z,37.90
2019-06-08T13:06:35.097Z,37.14
2019-06-08T13:09:08.984Z,36.40
2019-06-08T13:11:38.643Z,36.59
2019-06-08T13:14:10.261Z,36.43
2019-06-08T13:16:41.686Z,36.03
2019-06-08T13:19:13.129Z,35.25
2019-06-08T13:21:44.299Z,34.54
2019-06-08T13:24:15.625Z,35.30
2019-06-08T13:26:50.395Z,35.40
2019-06-08T13:29:20.156Z,35.60
2019-06-08T13:31:50.548Z,34.81
2019-06-08T13:34:24.283Z,34.71
2019-06-08T13:36:53.428Z,34.61
2019-06-08T13:39:24.027Z,33.03
2019-06-08T13:41:54.436Z,33.59
2019-06-08T13:44:27.658Z,33.24
2019-06-08T13:46:57.907Z,32.98
2019-06-08T13:49:30.778Z,33.39
2019-06-08T13:52:01.030Z,32.73
2019-06-08T13:54:32.000Z,32.39
2019-06-08T13:57:02.796Z,32.44
2019-06-08T13:59:33.287Z,32.17
2019-06-08T14:02:04.477Z,31.55
2019-06-08T14:04:39.436Z,31.60
2019-06-08T14:07:08.350Z,31.43
2019-06-08T14:09:38.805Z,31.61
2019-06-08T14:12:09.643Z,31.12
2019-06-08T14:14:40.127Z,31.01
2019-06-08T14:17:10.736Z,29.86
2019-06-08T14:19:41.390Z,29.05
2019-06-08T14:22:11.977Z,30.51
2019-06-08T14:24:42.675Z,29.49
2019-06-08T14:27:13.494Z,28.44
2019-06-08T14:29:44.024Z,27.35
2019-06-08T14:32:17.555Z,27.56
2019-06-08T14:34:47.986Z,27.75
2019-06-08T14:37:17.994Z,28.17
2019-06-08T14:39:48.816Z,29.08
2019-06-08T14:42:24.643Z,28.49
2019-06-08T14:44:52.027Z,29.85
2019-06-08T14:47:22.791Z,31.46
2019-06-08T14:49:53.109Z,32.10
2019-06-08T14:52:25.262Z,32.92
2019-06-08T14:54:58.506Z,33.41
2019-06-08T14:57:28.249Z,32.75
2019-06-08T15:00:00.084Z,33.36
2019-06-08T15:02:31.485Z,33.32
2019-06-08T15:05:02.168Z,32.20
2019-06-08T15:07:32.889Z,31.03
2019-06-08T15:10:03.326Z,29.54
2019-06-08T15:12:33.737Z,29.55
2019-06-08T15:15:04.652Z,27.91
2019-06-08T15:17:35.182Z,27.76
2019-06-08T15:20:08.808Z,27.81
2019-06-08T15:22:39.334Z,27.46
2019-06-08T15:25:11.063Z,27.41
2019-06-08T15:27:42.370Z,26.34
2019-06-08T15:30:17.463Z,26.50
2019-06-08T15:32:48.079Z,25.82
2019-06-08T15:35:18.757Z,25.81
2019-06-08T15:37:48.465Z,26.62
2019-06-08T15:40:19.196Z,28.17
2019-06-08T15:42:49.953Z,28.34
2019-06-08T15:45:21.867Z,27.29
2019-06-08T15:47:52.552Z,26.96
2019-06-08T15:50:24.174Z,27.63
2019-06-08T15:52:54.129Z,27.96
2019-06-08T15:55:24.958Z,28.20
2019-06-08T15:57:55.558Z,28.30
2019-06-08T16:00:28.359Z,28.40
2019-06-08T16:02:58.384Z,29.27
2019-06-08T16:05:29.618Z,30.19
2019-06-08T16:08:00.242Z,30.15
2019-06-08T16:10:30.608Z,29.79
2019-06-08T16:13:01.572Z,28.88
2019-06-08T16:15:33.361Z,28.18
2019-06-08T16:18:03.070Z,28.73
2019-06-08T16:20:33.678Z,27.69
2019-06-08T16:23:04.033Z,27.36
2019-06-08T16:25:38.374Z,27.18
2019-06-08T16:28:06.885Z,26.40
2019-06-08T16:30:37.269Z,27.10
2019-06-08T16:33:07.629Z,26.27
2019-06-08T16:35:38.055Z,26.34
2019-06-08T16:38:08.437Z,25.74
2019-06-08T16:40:38.787Z,25.63
2019-06-08T16:43:09.630Z,25.72
2019-06-08T16:45:40.491Z,26.23
2019-06-08T16:48:11.792Z,25.33
2019-06-08T16:50:42.276Z,25.91
2019-06-08T16:53:13.052Z,25.24
2019-06-08T16:55:43.837Z,25.04
2019-06-08T16:58:14.242Z,24.55
2019-06-08T17:00:44.683Z,24.99
2019-06-08T17:03:14.866Z,24.33
2019-06-08T17:05:45.458Z,24.88
2019-06-08T17:08:15.649Z,25.08
2019-06-08T17:10:46.135Z,24.46
2019-06-08T17:13:16.769Z,24.99
2019-06-08T17:15:47.814Z,25.69
2019-06-08T17:18:18.302Z,25.67
2019-06-08T17:20:48.895Z,25.25
2019-06-08T17:23:19.907Z,25.43
2019-06-08T17:25:50.486Z,25.46
2019-06-08T17:28:20.869Z,25.49
2019-06-08T17:30:51.476Z,26.16
2019-06-08T17:33:22.023Z,25.98
2019-06-08T17:35:52.388Z,25.63
2019-06-08T17:38:22.914Z,26.41
2019-06-08T17:40:53.470Z,26.01
2019-06-08T17:43:24.429Z,25.87
2019-06-08T17:45:54.820Z,25.98
2019-06-08T17:48:25.201Z,26.88
2019-06-08T17:50:55.752Z,27.75
2019-06-08T17:53:26.609Z,27.63
2019-06-08T17:55:56.874Z,27.72
2019-06-08T17:58:27.321Z,27.80
2019-06-08T18:00:57.928Z,28.00
2019-06-08T18:03:28.409Z,28.32
2019-06-08T18:05:59.249Z,29.04
2019-06-08T18:08:29.972Z,29.10
2019-06-08T18:11:00.686Z,28.81
2019-06-08T18:13:31.531Z,28.80
2019-06-08T18:16:02.011Z,29.55
2019-06-08T18:18:32.619Z,29.33
2019-06-08T18:21:03.273Z,29.60
2019-06-08T18:23:34.287Z,30.41
2019-06-08T18:26:04.928Z,30.63
2019-06-08T18:28:37.122Z,32.17
2019-06-08T18:31:07.827Z,32.82
2019-06-08T18:33:41.210Z,33.01
2019-06-08T18:36:10.712Z,34.36
2019-06-08T18:38:42.955Z,34.70
2019-06-08T18:41:13.548Z,35.11
2019-06-08T18:43:45.413Z,35.96
2019-06-08T18:46:17.963Z,36.90
2019-06-08T18:48:49.335Z,36.91
2019-06-08T18:51:20.155Z,37.14
2019-06-08T18:54:07.394Z,37.51
2019-06-08T18:56:22.969Z,37.77
2019-06-08T18:58:53.863Z,38.40
2019-06-08T19:01:24.607Z,38.42
2019-06-08T19:03:57.750Z,39.39
2019-06-08T19:06:27.967Z,39.53
2019-06-08T19:08:58.977Z,39.77
2019-06-08T19:11:29.566Z,40.03
2019-06-08T19:14:00.158Z,40.52
2019-06-08T19:16:30.856Z,40.69
2019-06-08T19:19:01.882Z,41.10
2019-06-08T19:21:32.536Z,41.22
2019-06-08T19:24:03.055Z,41.81
2019-06-08T19:26:33.556Z,41.63
2019-06-08T19:29:03.980Z,41.95
2019-06-08T19:31:34.541Z,42.50
2019-06-08T19:34:07.505Z,43.22
2019-06-08T19:36:39.986Z,44.09
2019-06-08T19:39:10.113Z,45.73
2019-06-08T19:41:41.506Z,45.98
2019-06-08T19:44:12.210Z,47.11
2019-06-08T19:46:43.042Z,47.02
2019-06-08T19:49:13.413Z,47.16
2019-06-08T19:51:45.010Z,47.09
2019-06-08T19:54:15.100Z,47.04
2019-06-08T19:56:52.139Z,48.02
2019-06-08T19:59:18.254Z,48.32
2019-06-08T20:01:56.031Z,48.72
2019-06-08T20:04:20.861Z,48.74
2019-06-08T20:06:50.872Z,49.39
2019-06-08T20:09:21.336Z,49.59
2019-06-08T20:11:55.458Z,49.86
2019-06-08T20:14:23.252Z,50.06
2019-06-08T20:16:53.236Z,49.80
2019-06-08T20:19:23.360Z,50.17
2019-06-08T20:21:53.538Z,50.14
2019-06-08T20:24:23.490Z,50.51
2019-06-08T20:26:54.796Z,52.19
2019-06-08T20:29:27.908Z,51.85
2019-06-08T20:31:58.242Z,52.18
2019-06-08T20:34:27.811Z,52.38
2019-06-08T20:37:01.293Z,53.06
2019-06-08T20:39:29.374Z,53.46
2019-06-08T20:41:59.254Z,53.81
2019-06-08T20:44:30.289Z,54.10
2019-06-08T20:47:00.336Z,54.50
2019-06-08T20:49:30.240Z,54.79
2019-06-08T20:52:00.575Z,54.99
2019-06-08T20:54:30.586Z,55.28
2019-06-08T20:57:00.583Z,55.52
2019-06-08T20:59:33.995Z,55.77
2019-06-08T21:02:02.181Z,55.43
2019-06-08T21:04:32.155Z,55.92
2019-06-08T21:07:02.308Z,55.83
2019-06-08T21:09:32.156Z,56.08
2019-06-08T21:12:02.289Z,55.88
2019-06-08T21:14:32.156Z,55.96
2019-06-08T21:17:02.182Z,55.92
2019-06-08T21:19:32.160Z,56.32
2019-06-08T21:22:02.074Z,56.25
2019-06-08T21:24:32.043Z,56.42
2019-06-08T21:27:01.931Z,56.84
2019-06-08T21:29:46.948Z,57.02
2019-06-08T21:32:03.489Z,57.01
2019-06-08T21:34:33.373Z,57.00
2019-06-08T21:37:03.387Z,57.00
2019-06-08T21:39:36.087Z,56.94
2019-06-08T21:42:04.814Z,57.12
2019-06-08T21:44:37.085Z,57.36
2019-06-08T21:47:07.873Z,57.48
2019-06-08T21:49:38.552Z,57.84
2019-06-08T21:52:08.788Z,57.97
2019-06-08T21:54:38.668Z,57.97
2019-06-08T21:57:09.681Z,58.38
2019-06-08T21:59:39.869Z,58.49
2019-06-08T22:02:10.475Z,58.18
2019-06-08T22:04:40.360Z,58.29
2019-06-08T22:07:10.353Z,58.04
2019-06-08T22:09:40.354Z,58.05
2019-06-08T22:12:10.372Z,57.98
2019-06-08T22:14:40.243Z,57.75
2019-06-08T22:17:10.301Z,57.87
2019-06-08T22:19:40.257Z,58.31
2019-06-08T22:22:10.459Z,58.51
2019-06-08T22:24:40.376Z,58.39
2019-06-08T22:27:10.273Z,58.63
2019-06-08T22:29:40.131Z,58.72
2019-06-08T22:32:10.282Z,58.84
2019-06-08T22:34:40.133Z,59.06
2019-06-08T22:37:10.287Z,59.06
2019-06-08T22:39:40.136Z,59.13
2019-06-08T22:42:10.047Z,59.25
2019-06-08T22:44:39.900Z,59.29
2019-06-08T22:47:09.782Z,59.62
2019-06-08T22:49:39.675Z,59.68
2019-06-08T22:52:09.543Z,59.65
2019-06-08T22:54:39.428Z,59.87
2019-06-08T22:57:09.450Z,60.52
2019-06-08T22:59:39.434Z,60.40
2019-06-08T23:02:09.549Z,60.49
2019-06-08T23:04:39.450Z,60.64
2019-06-08T23:07:17.739Z,60.56
2019-06-08T23:09:40.877Z,60.96
2019-06-08T23:12:10.803Z,61.32
2019-06-08T23:14:40.780Z,61.44
2019-06-08T23:17:10.646Z,61.60
2019-06-08T23:19:40.645Z,61.63
2019-06-08T23:22:10.527Z,61.71
2019-06-08T23:24:40.407Z,61.95
2019-06-08T23:27:10.313Z,62.10
2019-06-08T23:29:40.166Z,62.49
2019-06-08T23:32:11.757Z,62.74
2019-06-08T23:34:41.615Z,63.11
2019-06-08T23:37:12.831Z,63.42
2019-06-08T23:39:43.060Z,63.72
2019-06-08T23:42:13.182Z,63.50
2019-06-08T23:44:43.175Z,63.66
2019-06-08T23:47:13.064Z,63.97
2019-06-08T23:49:43.183Z,64.06
2019-06-08T23:52:13.064Z,64.15
2019-06-08T23:54:43.189Z,64.77
2019-06-08T23:57:13.077Z,64.71
2019-06-08T23:59:47.818Z,64.40
